sensor_id;sensor_type;location;lat;lon;timestamp;temperature;humidity
68251;DHT22;55066;51.560;4.642;2023-02-05T00:00:29;7.52;99.99
68251;DHT22;55066;51.560;4.642;2023-02-05T00:02:55;7.51;99.99
68251;DHT22;55066;51.560;4.642;2023-02-05T00:05:20;7.49;99.99
68251;DHT22;55066;51.560;4.642;2023-02-05T00:07:46;7.42;99.99
68251;DHT22;55066;51.560;4.642;2023-02-05T00:10:12;7.44;99.99
68251;DHT22;55066;51.560;4.642;2023-02-05T00:12:37;7.45;99.99
68251;DHT22;55066;51.560;4.642;2023-02-05T00:15:04;7.42;99.99
68251;DHT22;55066;51.560;4.642;2023-02-05T00:17:29;7.38;99.99
68251;DHT22;55066;51.560;4.642;2023-02-05T00:19:55;7.41;99.99
68251;DHT22;55066;51.560;4.642;2023-02-05T00:22:20;7.38;99.99
68251;DHT22;55066;51.560;4.642;2023-02-05T00:24:46;7.36;99.99
68251;DHT22;55066;51.560;4.642;2023-02-05T00:27:11;7.34;99.99
68251;DHT22;55066;51.560;4.642;2023-02-05T00:29:37;7.36;99.99
68251;DHT22;55066;51.560;4.642;2023-02-05T00:32:02;7.32;99.99
68251;DHT22;55066;51.560;4.642;2023-02-05T00:34:28;7.34;99.99
68251;DHT22;55066;51.560;4.642;2023-02-05T00:36:53;7.31;99.99
68251;DHT22;55066;51.560;4.642;2023-02-05T00:39:18;7.25;99.99
68251;DHT22;55066;51.560;4.642;2023-02-05T00:41:45;7.24;99.99
68251;DHT22;55066;51.560;4.642;2023-02-05T00:44:11;7.24;99.99
68251;DHT22;55066;51.560;4.642;2023-02-05T00:46:36;7.28;99.99
68251;DHT22;55066;51.560;4.642;2023-02-05T00:49:02;7.25;99.99
68251;DHT22;55066;51.560;4.642;2023-02-05T00:51:27;7.27;99.99
68251;DHT22;55066;51.560;4.642;2023-02-05T00:53:54;7.35;99.99
68251;DHT22;55066;51.560;4.642;2023-02-05T00:56:19;7.29;99.99
68251;DHT22;55066;51.560;4.642;2023-02-05T00:58:45;7.32;99.99
68251;DHT22;55066;51.560;4.642;2023-02-05T01:01:13;7.29;99.99
68251;DHT22;55066;51.560;4.642;2023-02-05T01:03:39;7.25;99.99
68251;DHT22;55066;51.560;4.642;2023-02-05T01:06:05;7.24;99.99
68251;DHT22;55066;51.560;4.642;2023-02-05T01:08:31;7.32;99.99
68251;DHT22;55066;51.560;4.642;2023-02-05T01:10:56;7.34;99.99
68251;DHT22;55066;51.560;4.642;2023-02-05T01:13:23;7.41;99.99
68251;DHT22;55066;51.560;4.642;2023-02-05T01:15:49;7.55;99.99
68251;DHT22;55066;51.560;4.642;2023-02-05T01:18:14;7.48;99.99
68251;DHT22;55066;51.560;4.642;2023-02-05T01:20:41;7.51;99.99
68251;DHT22;55066;51.560;4.642;2023-02-05T01:23:06;7.47;99.99
68251;DHT22;55066;51.560;4.642;2023-02-05T01:25:32;7.44;99.99
68251;DHT22;55066;51.560;4.642;2023-02-05T01:27:58;7.39;99.99
68251;DHT22;55066;51.560;4.642;2023-02-05T01:30:23;7.38;99.99
68251;DHT22;55066;51.560;4.642;2023-02-05T01:32:49;7.42;99.99
68251;DHT22;55066;51.560;4.642;2023-02-05T01:35:14;7.28;99.99
68251;DHT22;55066;51.560;4.642;2023-02-05T01:37:39;7.29;99.99
68251;DHT22;55066;51.560;4.642;2023-02-05T01:40:08;7.36;99.99
68251;DHT22;55066;51.560;4.642;2023-02-05T01:42:34;7.38;99.99
68251;DHT22;55066;51.560;4.642;2023-02-05T01:47:56;7.25;99.99
68251;DHT22;55066;51.560;4.642;2023-02-05T01:50:35;7.38;99.99
68251;DHT22;55066;51.560;4.642;2023-02-05T01:53:05;7.27;99.99
68251;DHT22;55066;51.560;4.642;2023-02-05T01:55:31;7.28;99.99
68251;DHT22;55066;51.560;4.642;2023-02-05T01:57:59;7.21;99.99
68251;DHT22;55066;51.560;4.642;2023-02-05T02:00:25;7.32;99.99
68251;DHT22;55066;51.560;4.642;2023-02-05T02:02:51;7.22;99.99
68251;DHT22;55066;51.560;4.642;2023-02-05T02:05:17;7.21;99.99
68251;DHT22;55066;51.560;4.642;2023-02-05T02:07:43;7.25;99.99
68251;DHT22;55066;51.560;4.642;2023-02-05T02:10:12;7.28;99.99
68251;DHT22;55066;51.560;4.642;2023-02-05T02:12:40;7.21;99.99
68251;DHT22;55066;51.560;4.642;2023-02-05T02:15:10;7.31;99.99
68251;DHT22;55066;51.560;4.642;2023-02-05T02:17:39;7.15;99.99
68251;DHT22;55066;51.560;4.642;2023-02-05T02:20:31;7.05;99.99
68251;DHT22;55066;51.560;4.642;2023-02-05T02:23:19;7.07;99.99
68251;DHT22;55066;51.560;4.642;2023-02-05T02:25:55;7.20;99.99
68251;DHT22;55066;51.560;4.642;2023-02-05T02:28:57;7.17;99.99
68251;DHT22;55066;51.560;4.642;2023-02-05T02:31:34;7.03;99.99
68251;DHT22;55066;51.560;4.642;2023-02-05T02:34:15;7.22;99.99
68251;DHT22;55066;51.560;4.642;2023-02-05T02:36:57;7.25;99.99
68251;DHT22;55066;51.560;4.642;2023-02-05T02:39:28;7.03;99.99
68251;DHT22;55066;51.560;4.642;2023-02-05T02:42:03;6.89;99.99
68251;DHT22;55066;51.560;4.642;2023-02-05T02:44:40;6.99;99.99
68251;DHT22;55066;51.560;4.642;2023-02-05T02:47:17;6.90;99.99
68251;DHT22;55066;51.560;4.642;2023-02-05T02:49:55;6.87;99.99
68251;DHT22;55066;51.560;4.642;2023-02-05T02:52:24;6.90;99.99
68251;DHT22;55066;51.560;4.642;2023-02-05T02:54:54;6.90;99.99
68251;DHT22;55066;51.560;4.642;2023-02-05T02:57:23;6.90;99.99
68251;DHT22;55066;51.560;4.642;2023-02-05T02:59:52;6.79;99.99
68251;DHT22;55066;51.560;4.642;2023-02-05T03:02:19;6.62;99.99
68251;DHT22;55066;51.560;4.642;2023-02-05T03:04:56;6.79;99.99
68251;DHT22;55066;51.560;4.642;2023-02-05T03:07:29;6.79;99.99
68251;DHT22;55066;51.560;4.642;2023-02-05T03:12:36;6.87;99.99
68251;DHT22;55066;51.560;4.642;2023-02-05T03:15:02;6.79;99.99
68251;DHT22;55066;51.560;4.642;2023-02-05T03:17:28;6.72;99.99
68251;DHT22;55066;51.560;4.642;2023-02-05T03:20:02;6.80;99.99
68251;DHT22;55066;51.560;4.642;2023-02-05T03:22:29;6.82;99.99
68251;DHT22;55066;51.560;4.642;2023-02-05T03:24:55;6.84;99.99
68251;DHT22;55066;51.560;4.642;2023-02-05T03:27:21;6.77;99.99
68251;DHT22;55066;51.560;4.642;2023-02-05T03:29:48;6.76;99.99
68251;DHT22;55066;51.560;4.642;2023-02-05T03:32:38;6.72;99.99
68251;DHT22;55066;51.560;4.642;2023-02-05T03:35:25;6.71;99.99
68251;DHT22;55066;51.560;4.642;2023-02-05T03:43:15;6.96;99.99
68251;DHT22;55066;51.560;4.642;2023-02-05T03:45:58;6.92;99.99
68251;DHT22;55066;51.560;4.642;2023-02-05T03:49:02;6.94;99.99
68251;DHT22;55066;51.560;4.642;2023-02-05T03:51:39;7.01;99.99
68251;DHT22;55066;51.560;4.642;2023-02-05T03:57:13;7.10;99.99
68251;DHT22;55066;51.560;4.642;2023-02-05T03:59:41;7.04;99.99
68251;DHT22;55066;51.560;4.642;2023-02-05T04:02:08;6.87;99.99
68251;DHT22;55066;51.560;4.642;2023-02-05T04:04:38;7.05;99.99
68251;DHT22;55066;51.560;4.642;2023-02-05T04:07:06;7.08;99.99
68251;DHT22;55066;51.560;4.642;2023-02-05T04:09:33;6.94;99.99
68251;DHT22;55066;51.560;4.642;2023-02-05T04:11:58;7.03;99.99
68251;DHT22;55066;51.560;4.642;2023-02-05T04:14:27;7.12;99.99
68251;DHT22;55066;51.560;4.642;2023-02-05T04:16:53;7.00;99.99
68251;DHT22;55066;51.560;4.642;2023-02-05T04:19:22;7.03;99.99
68251;DHT22;55066;51.560;4.642;2023-02-05T04:21:50;7.17;99.99
68251;DHT22;55066;51.560;4.642;2023-02-05T04:24:15;7.14;99.99
68251;DHT22;55066;51.560;4.642;2023-02-05T04:26:41;7.12;99.99
68251;DHT22;55066;51.560;4.642;2023-02-05T04:29:07;7.14;99.99
68251;DHT22;55066;51.560;4.642;2023-02-05T04:31:38;7.34;99.99
68251;DHT22;55066;51.560;4.642;2023-02-05T04:34:04;7.10;99.99
68251;DHT22;55066;51.560;4.642;2023-02-05T04:36:30;7.11;99.99
68251;DHT22;55066;51.560;4.642;2023-02-05T04:38:56;7.05;99.99
68251;DHT22;55066;51.560;4.642;2023-02-05T04:41:21;7.14;99.99
68251;DHT22;55066;51.560;4.642;2023-02-05T04:43:46;7.05;99.99
68251;DHT22;55066;51.560;4.642;2023-02-05T04:46:12;7.20;99.99
68251;DHT22;55066;51.560;4.642;2023-02-05T04:48:37;7.15;99.99
68251;DHT22;55066;51.560;4.642;2023-02-05T04:51:08;7.24;99.99
68251;DHT22;55066;51.560;4.642;2023-02-05T04:53:33;7.21;99.99
68251;DHT22;55066;51.560;4.642;2023-02-05T04:56:07;7.18;99.99
68251;DHT22;55066;51.560;4.642;2023-02-05T04:58:33;7.14;99.99
68251;DHT22;55066;51.560;4.642;2023-02-05T05:00:58;7.18;99.99
68251;DHT22;55066;51.560;4.642;2023-02-05T05:03:24;7.25;99.99
68251;DHT22;55066;51.560;4.642;2023-02-05T05:05:49;7.18;99.99
68251;DHT22;55066;51.560;4.642;2023-02-05T05:08:15;7.18;99.99
68251;DHT22;55066;51.560;4.642;2023-02-05T05:10:40;7.12;99.99
68251;DHT22;55066;51.560;4.642;2023-02-05T05:13:05;7.20;99.99
68251;DHT22;55066;51.560;4.642;2023-02-05T05:15:31;7.28;99.99
68251;DHT22;55066;51.560;4.642;2023-02-05T05:17:56;7.48;99.99
68251;DHT22;55066;51.560;4.642;2023-02-05T05:20:22;7.45;99.99
68251;DHT22;55066;51.560;4.642;2023-02-05T05:22:47;7.36;99.99
68251;DHT22;55066;51.560;4.642;2023-02-05T05:25:12;7.28;99.99
68251;DHT22;55066;51.560;4.642;2023-02-05T05:27:38;7.24;99.99
68251;DHT22;55066;51.560;4.642;2023-02-05T05:30:03;7.31;99.99
68251;DHT22;55066;51.560;4.642;2023-02-05T05:32:29;7.41;99.99
68251;DHT22;55066;51.560;4.642;2023-02-05T05:34:54;7.25;99.99
68251;DHT22;55066;51.560;4.642;2023-02-05T05:37:21;7.21;99.99
68251;DHT22;55066;51.560;4.642;2023-02-05T05:39:48;7.25;99.99
68251;DHT22;55066;51.560;4.642;2023-02-05T05:42:32;7.18;99.99
68251;DHT22;55066;51.560;4.642;2023-02-05T05:45:16;7.15;99.99
68251;DHT22;55066;51.560;4.642;2023-02-05T05:47:42;7.20;99.99
68251;DHT22;55066;51.560;4.642;2023-02-05T05:50:08;7.07;99.99
68251;DHT22;55066;51.560;4.642;2023-02-05T05:52:33;7.04;99.99
68251;DHT22;55066;51.560;4.642;2023-02-05T05:54:59;7.10;99.99
68251;DHT22;55066;51.560;4.642;2023-02-05T05:57:24;7.12;99.99
68251;DHT22;55066;51.560;4.642;2023-02-05T05:59:50;7.15;99.99
68251;DHT22;55066;51.560;4.642;2023-02-05T06:02:15;7.11;99.99
68251;DHT22;55066;51.560;4.642;2023-02-05T06:04:41;7.11;99.99
68251;DHT22;55066;51.560;4.642;2023-02-05T06:07:06;7.01;99.99
68251;DHT22;55066;51.560;4.642;2023-02-05T06:09:31;6.96;99.99
68251;DHT22;55066;51.560;4.642;2023-02-05T06:11:57;6.92;99.99
68251;DHT22;55066;51.560;4.642;2023-02-05T06:14:22;6.76;99.99
68251;DHT22;55066;51.560;4.642;2023-02-05T06:16:48;6.84;99.99
68251;DHT22;55066;51.560;4.642;2023-02-05T06:19:13;6.61;99.99
68251;DHT22;55066;51.560;4.642;2023-02-05T06:21:39;6.62;99.99
68251;DHT22;55066;51.560;4.642;2023-02-05T06:24:04;6.73;99.99
68251;DHT22;55066;51.560;4.642;2023-02-05T06:26:30;6.59;99.99
68251;DHT22;55066;51.560;4.642;2023-02-05T06:28:55;6.71;99.99
68251;DHT22;55066;51.560;4.642;2023-02-05T06:31:28;6.66;99.99
68251;DHT22;55066;51.560;4.642;2023-02-05T06:33:54;6.82;99.99
68251;DHT22;55066;51.560;4.642;2023-02-05T06:36:19;6.66;99.99
68251;DHT22;55066;51.560;4.642;2023-02-05T06:38:47;6.53;99.99
68251;DHT22;55066;51.560;4.642;2023-02-05T06:41:13;6.53;99.99
68251;DHT22;55066;51.560;4.642;2023-02-05T06:43:38;6.48;99.99
68251;DHT22;55066;51.560;4.642;2023-02-05T06:46:05;6.72;99.99
68251;DHT22;55066;51.560;4.642;2023-02-05T06:48:31;6.75;99.99
68251;DHT22;55066;51.560;4.642;2023-02-05T06:50:57;6.62;99.99
68251;DHT22;55066;51.560;4.642;2023-02-05T06:53:22;6.53;99.99
68251;DHT22;55066;51.560;4.642;2023-02-05T06:55:47;6.68;99.99
68251;DHT22;55066;51.560;4.642;2023-02-05T06:58:13;6.77;99.99
68251;DHT22;55066;51.560;4.642;2023-02-05T07:00:39;6.63;99.99
68251;DHT22;55066;51.560;4.642;2023-02-05T07:03:05;6.73;99.99
68251;DHT22;55066;51.560;4.642;2023-02-05T07:05:32;6.68;99.99
68251;DHT22;55066;51.560;4.642;2023-02-05T07:07:57;6.55;99.99
68251;DHT22;55066;51.560;4.642;2023-02-05T07:10:24;6.52;99.99
68251;DHT22;55066;51.560;4.642;2023-02-05T07:12:49;6.72;99.99
68251;DHT22;55066;51.560;4.642;2023-02-05T07:15:16;6.66;99.99
68251;DHT22;55066;51.560;4.642;2023-02-05T07:17:41;6.71;99.99
68251;DHT22;55066;51.560;4.642;2023-02-05T07:20:07;6.61;99.99
68251;DHT22;55066;51.560;4.642;2023-02-05T07:22:33;6.57;99.99
68251;DHT22;55066;51.560;4.642;2023-02-05T07:24:58;6.57;99.99
68251;DHT22;55066;51.560;4.642;2023-02-05T07:27:24;6.55;99.99
68251;DHT22;55066;51.560;4.642;2023-02-05T07:29:51;6.65;99.99
68251;DHT22;55066;51.560;4.642;2023-02-05T07:32:18;6.56;99.99
68251;DHT22;55066;51.560;4.642;2023-02-05T07:34:43;6.63;99.99
68251;DHT22;55066;51.560;4.642;2023-02-05T07:37:11;6.75;99.99
68251;DHT22;55066;51.560;4.642;2023-02-05T07:39:37;6.82;99.99
68251;DHT22;55066;51.560;4.642;2023-02-05T07:42:03;6.80;99.99
68251;DHT22;55066;51.560;4.642;2023-02-05T07:44:36;6.80;99.99
68251;DHT22;55066;51.560;4.642;2023-02-05T07:47:02;6.75;99.99
68251;DHT22;55066;51.560;4.642;2023-02-05T07:49:28;6.83;99.99
68251;DHT22;55066;51.560;4.642;2023-02-05T07:51:54;6.89;99.99
68251;DHT22;55066;51.560;4.642;2023-02-05T07:54:19;6.89;99.99
68251;DHT22;55066;51.560;4.642;2023-02-05T07:56:44;6.90;99.99
68251;DHT22;55066;51.560;4.642;2023-02-05T07:59:10;6.99;99.99
68251;DHT22;55066;51.560;4.642;2023-02-05T08:01:36;6.94;99.58
68251;DHT22;55066;51.560;4.642;2023-02-05T08:04:01;6.94;99.06
68251;DHT22;55066;51.560;4.642;2023-02-05T08:06:27;7.12;99.99
68251;DHT22;55066;51.560;4.642;2023-02-05T08:08:52;7.12;99.99
68251;DHT22;55066;51.560;4.642;2023-02-05T08:11:18;7.12;99.99
68251;DHT22;55066;51.560;4.642;2023-02-05T08:13:44;7.11;98.33
68251;DHT22;55066;51.560;4.642;2023-02-05T08:16:10;7.17;99.99
68251;DHT22;55066;51.560;4.642;2023-02-05T08:18:37;7.24;99.82
68251;DHT22;55066;51.560;4.642;2023-02-05T08:21:03;7.28;99.99
68251;DHT22;55066;51.560;4.642;2023-02-05T08:23:28;7.35;99.99
68251;DHT22;55066;51.560;4.642;2023-02-05T08:25:55;7.32;99.99
68251;DHT22;55066;51.560;4.642;2023-02-05T08:28:21;7.48;99.99
68251;DHT22;55066;51.560;4.642;2023-02-05T08:30:47;7.36;99.23
68251;DHT22;55066;51.560;4.642;2023-02-05T08:33:12;7.45;99.89
68251;DHT22;55066;51.560;4.642;2023-02-05T08:35:38;7.54;99.99
68251;DHT22;55066;51.560;4.642;2023-02-05T08:38:03;7.49;99.99
68251;DHT22;55066;51.560;4.642;2023-02-05T08:40:42;7.45;99.99
68251;DHT22;55066;51.560;4.642;2023-02-05T08:43:08;7.51;99.99
68251;DHT22;55066;51.560;4.642;2023-02-05T08:45:33;7.41;99.18
68251;DHT22;55066;51.560;4.642;2023-02-05T08:47:59;7.49;98.54
68251;DHT22;55066;51.560;4.642;2023-02-05T08:50:24;7.58;97.33
68251;DHT22;55066;51.560;4.642;2023-02-05T08:52:50;7.59;98.14
68251;DHT22;55066;51.560;4.642;2023-02-05T08:55:16;7.55;99.95
68251;DHT22;55066;51.560;4.642;2023-02-05T08:57:45;7.45;99.02
68251;DHT22;55066;51.560;4.642;2023-02-05T09:00:11;7.18;99.99
68251;DHT22;55066;51.560;4.642;2023-02-05T09:02:37;7.03;99.99
68251;DHT22;55066;51.560;4.642;2023-02-05T09:05:02;6.89;99.99
68251;DHT22;55066;51.560;4.642;2023-02-05T09:07:29;7.00;99.99
68251;DHT22;55066;51.560;4.642;2023-02-05T09:09:56;6.89;99.99
68251;DHT22;55066;51.560;4.642;2023-02-05T09:12:23;6.94;99.99
68251;DHT22;55066;51.560;4.642;2023-02-05T09:14:50;6.84;99.99
68251;DHT22;55066;51.560;4.642;2023-02-05T09:17:19;7.03;99.99
68251;DHT22;55066;51.560;4.642;2023-02-05T09:19:45;7.15;99.99
68251;DHT22;55066;51.560;4.642;2023-02-05T09:22:10;7.27;99.99
68251;DHT22;55066;51.560;4.642;2023-02-05T09:24:36;7.34;99.99
68251;DHT22;55066;51.560;4.642;2023-02-05T09:27:01;7.58;99.99
68251;DHT22;55066;51.560;4.642;2023-02-05T09:29:27;7.58;98.96
68251;DHT22;55066;51.560;4.642;2023-02-05T09:31:52;7.59;99.08
68251;DHT22;55066;51.560;4.642;2023-02-05T09:34:18;7.61;97.71
68251;DHT22;55066;51.560;4.642;2023-02-05T09:36:43;7.67;97.26
68251;DHT22;55066;51.560;4.642;2023-02-05T09:39:12;7.65;97.45
68251;DHT22;55066;51.560;4.642;2023-02-05T09:41:44;7.62;99.99
68251;DHT22;55066;51.560;4.642;2023-02-05T09:47:12;7.63;98.50
68251;DHT22;55066;51.560;4.642;2023-02-05T09:52:20;7.90;96.90
68251;DHT22;55066;51.560;4.642;2023-02-05T09:55:22;7.80;97.99
68251;DHT22;55066;51.560;4.642;2023-02-05T09:57:50;7.69;98.82
68251;DHT22;55066;51.560;4.642;2023-02-05T10:00:52;7.61;96.02
68251;DHT22;55066;51.560;4.642;2023-02-05T10:03:42;7.77;98.50
68251;DHT22;55066;51.560;4.642;2023-02-05T10:12:01;8.27;94.97
68251;DHT22;55066;51.560;4.642;2023-02-05T10:17:28;8.30;92.97
68251;DHT22;55066;51.560;4.642;2023-02-05T10:23:10;8.21;95.58
68251;DHT22;55066;51.560;4.642;2023-02-05T10:36:51;8.11;94.13
68251;DHT22;55066;51.560;4.642;2023-02-05T10:39:19;8.13;94.49
68251;DHT22;55066;51.560;4.642;2023-02-05T10:42:19;8.20;94.24
68251;DHT22;55066;51.560;4.642;2023-02-05T10:44:48;8.17;95.47
68251;DHT22;55066;51.560;4.642;2023-02-05T10:50:24;8.14;94.96
68251;DHT22;55066;51.560;4.642;2023-02-05T10:52:52;8.23;93.87
68251;DHT22;55066;51.560;4.642;2023-02-05T10:55:19;8.28;92.78
68251;DHT22;55066;51.560;4.642;2023-02-05T10:57:44;8.40;95.15
68251;DHT22;55066;51.560;4.642;2023-02-05T11:00:16;8.27;94.47
68251;DHT22;55066;51.560;4.642;2023-02-05T11:02:47;8.15;96.50
68251;DHT22;55066;51.560;4.642;2023-02-05T11:05:36;8.05;97.78
68251;DHT22;55066;51.560;4.642;2023-02-05T11:08:03;8.04;96.24
68251;DHT22;55066;51.560;4.642;2023-02-05T11:10:31;8.28;95.37
68251;DHT22;55066;51.560;4.642;2023-02-05T11:13:18;8.48;95.78
68251;DHT22;55066;51.560;4.642;2023-02-05T11:16:07;8.52;96.16
68251;DHT22;55066;51.560;4.642;2023-02-05T11:18:42;8.42;95.92
68251;DHT22;55066;51.560;4.642;2023-02-05T11:21:08;8.55;95.47
68251;DHT22;55066;51.560;4.642;2023-02-05T11:23:35;8.70;93.59
68251;DHT22;55066;51.560;4.642;2023-02-05T11:26:17;8.58;94.78
68251;DHT22;55066;51.560;4.642;2023-02-05T11:28:44;8.49;96.20
68251;DHT22;55066;51.560;4.642;2023-02-05T11:31:32;8.51;94.98
68251;DHT22;55066;51.560;4.642;2023-02-05T11:36:35;8.80;92.69
68251;DHT22;55066;51.560;4.642;2023-02-05T11:39:01;8.96;90.16
68251;DHT22;55066;51.560;4.642;2023-02-05T11:41:31;8.93;94.97
68251;DHT22;55066;51.560;4.642;2023-02-05T11:43:59;8.75;91.79
68251;DHT22;55066;51.560;4.642;2023-02-05T11:46:27;8.77;91.32
68251;DHT22;55066;51.560;4.642;2023-02-05T11:49:00;8.77;91.25
68251;DHT22;55066;51.560;4.642;2023-02-05T11:51:42;8.70;91.12
68251;DHT22;55066;51.560;4.642;2023-02-05T11:57:25;8.69;90.87
68251;DHT22;55066;51.560;4.642;2023-02-05T12:00:21;8.76;92.53
68251;DHT22;55066;51.560;4.642;2023-02-05T12:02:47;8.93;93.65
68251;DHT22;55066;51.560;4.642;2023-02-05T12:05:25;9.10;92.37
68251;DHT22;55066;51.560;4.642;2023-02-05T12:10:48;9.13;91.90
68251;DHT22;55066;51.560;4.642;2023-02-05T12:19:28;9.08;92.05
68251;DHT22;55066;51.560;4.642;2023-02-05T12:22:20;8.84;91.06
68251;DHT22;55066;51.560;4.642;2023-02-05T12:33:27;9.18;90.37
68251;DHT22;55066;51.560;4.642;2023-02-05T12:39:09;8.93;92.29
68251;DHT22;55066;51.560;4.642;2023-02-05T12:59:32;9.41;92.19
68251;DHT22;55066;51.560;4.642;2023-02-05T13:02:26;9.30;85.98
68251;DHT22;55066;51.560;4.642;2023-02-05T13:05:14;9.38;90.52
68251;DHT22;55066;51.560;4.642;2023-02-05T13:07:46;9.41;88.45
68251;DHT22;55066;51.560;4.642;2023-02-05T13:10:24;9.37;86.05
68251;DHT22;55066;51.560;4.642;2023-02-05T13:12:57;9.28;84.89
68251;DHT22;55066;51.560;4.642;2023-02-05T13:15:27;9.41;88.03
68251;DHT22;55066;51.560;4.642;2023-02-05T13:23:15;9.21;89.13
68251;DHT22;55066;51.560;4.642;2023-02-05T13:26:02;9.14;82.62
68251;DHT22;55066;51.560;4.642;2023-02-05T13:29:02;9.59;87.71
68251;DHT22;55066;51.560;4.642;2023-02-05T13:31:39;9.73;88.15
68251;DHT22;55066;51.560;4.642;2023-02-05T13:34:10;9.73;85.30
68251;DHT22;55066;51.560;4.642;2023-02-05T13:52:59;9.46;84.26
68251;DHT22;55066;51.560;4.642;2023-02-05T14:00:39;9.21;84.48
68251;DHT22;55066;51.560;4.642;2023-02-05T14:03:05;9.13;84.64
68251;DHT22;55066;51.560;4.642;2023-02-05T14:05:36;8.84;83.41
68251;DHT22;55066;51.560;4.642;2023-02-05T14:08:02;9.13;85.34
68251;DHT22;55066;51.560;4.642;2023-02-05T14:10:38;9.61;89.22
68251;DHT22;55066;51.560;4.642;2023-02-05T14:13:12;9.41;82.91
68251;DHT22;55066;51.560;4.642;2023-02-05T14:15:41;9.28;82.71
68251;DHT22;55066;51.560;4.642;2023-02-05T14:18:45;9.23;86.90
68251;DHT22;55066;51.560;4.642;2023-02-05T14:20:57;9.24;85.48
68251;DHT22;55066;51.560;4.642;2023-02-05T14:24:00;9.41;83.42
68251;DHT22;55066;51.560;4.642;2023-02-05T14:26:46;9.45;88.08
68251;DHT22;55066;51.560;4.642;2023-02-05T14:29:41;9.20;87.57
68251;DHT22;55066;51.560;4.642;2023-02-05T14:32:11;9.00;84.81
68251;DHT22;55066;51.560;4.642;2023-02-05T14:37:03;9.14;83.39
68251;DHT22;55066;51.560;4.642;2023-02-05T14:39:30;8.96;83.61
68251;DHT22;55066;51.560;4.642;2023-02-05T14:42:01;8.80;84.36
68251;DHT22;55066;51.560;4.642;2023-02-05T14:44:34;8.76;86.92
68251;DHT22;55066;51.560;4.642;2023-02-05T14:47:07;8.59;87.13
68251;DHT22;55066;51.560;4.642;2023-02-05T14:49:42;8.44;84.62
68251;DHT22;55066;51.560;4.642;2023-02-05T14:52:38;8.44;85.39
68251;DHT22;55066;51.560;4.642;2023-02-05T14:57:51;8.79;86.58
68251;DHT22;55066;51.560;4.642;2023-02-05T15:00:38;8.83;87.63
68251;DHT22;55066;51.560;4.642;2023-02-05T15:03:17;8.81;86.01
68251;DHT22;55066;51.560;4.642;2023-02-05T15:05:53;8.77;86.42
68251;DHT22;55066;51.560;4.642;2023-02-05T15:11:10;8.38;87.08
68251;DHT22;55066;51.560;4.642;2023-02-05T15:13:37;8.38;86.75
68251;DHT22;55066;51.560;4.642;2023-02-05T15:18:47;8.49;92.45
68251;DHT22;55066;51.560;4.642;2023-02-05T15:21:22;8.51;89.02
68251;DHT22;55066;51.560;4.642;2023-02-05T15:24:36;9.13;89.92
68251;DHT22;55066;51.560;4.642;2023-02-05T15:27:00;9.65;89.35
68251;DHT22;55066;51.560;4.642;2023-02-05T15:29:30;9.37;86.41
68251;DHT22;55066;51.560;4.642;2023-02-05T15:32:01;8.69;85.38
68251;DHT22;55066;51.560;4.642;2023-02-05T15:34:37;8.58;87.88
68251;DHT22;55066;51.560;4.642;2023-02-05T15:42:36;7.96;87.15
68251;DHT22;55066;51.560;4.642;2023-02-05T15:45:16;8.18;94.93
68251;DHT22;55066;51.560;4.642;2023-02-05T15:47:42;8.21;91.90
68251;DHT22;55066;51.560;4.642;2023-02-05T15:50:13;8.13;90.24
68251;DHT22;55066;51.560;4.642;2023-02-05T15:52:40;8.10;90.64
68251;DHT22;55066;51.560;4.642;2023-02-05T15:55:17;8.07;93.25
68251;DHT22;55066;51.560;4.642;2023-02-05T15:57:45;8.10;90.24
68251;DHT22;55066;51.560;4.642;2023-02-05T16:00:25;8.03;90.70
68251;DHT22;55066;51.560;4.642;2023-02-05T16:02:55;8.01;92.78
68251;DHT22;55066;51.560;4.642;2023-02-05T16:05:24;7.90;91.04
68251;DHT22;55066;51.560;4.642;2023-02-05T16:07:51;7.94;93.29
68251;DHT22;55066;51.560;4.642;2023-02-05T16:10:29;7.89;91.63
68251;DHT22;55066;51.560;4.642;2023-02-05T16:13:05;7.98;92.63
68251;DHT22;55066;51.560;4.642;2023-02-05T16:15:38;8.04;95.59
68251;DHT22;55066;51.560;4.642;2023-02-05T16:18:11;7.79;89.06
68251;DHT22;55066;51.560;4.642;2023-02-05T16:20:42;7.87;91.21
68251;DHT22;55066;51.560;4.642;2023-02-05T16:23:27;7.85;89.67
68251;DHT22;55066;51.560;4.642;2023-02-05T16:25:57;7.83;90.19
68251;DHT22;55066;51.560;4.642;2023-02-05T16:28:41;7.62;90.37
68251;DHT22;55066;51.560;4.642;2023-02-05T16:31:14;7.48;89.27
68251;DHT22;55066;51.560;4.642;2023-02-05T16:34:12;7.39;92.59
68251;DHT22;55066;51.560;4.642;2023-02-05T16:36:37;7.39;90.94
68251;DHT22;55066;51.560;4.642;2023-02-05T16:39:06;7.45;93.26
68251;DHT22;55066;51.560;4.642;2023-02-05T16:41:36;7.27;90.30
68251;DHT22;55066;51.560;4.642;2023-02-05T16:44:04;7.41;94.22
68251;DHT22;55066;51.560;4.642;2023-02-05T16:46:32;7.39;90.06
68251;DHT22;55066;51.560;4.642;2023-02-05T16:56:46;7.31;89.61
68251;DHT22;55066;51.560;4.642;2023-02-05T16:59:28;7.05;90.64
68251;DHT22;55066;51.560;4.642;2023-02-05T17:01:54;7.07;92.40
68251;DHT22;55066;51.560;4.642;2023-02-05T17:04:34;7.17;93.37
68251;DHT22;55066;51.560;4.642;2023-02-05T17:07:03;7.01;92.07
68251;DHT22;55066;51.560;4.642;2023-02-05T17:09:37;6.99;93.69
68251;DHT22;55066;51.560;4.642;2023-02-05T17:15:30;6.72;92.46
68251;DHT22;55066;51.560;4.642;2023-02-05T17:17:56;6.73;92.61
68251;DHT22;55066;51.560;4.642;2023-02-05T17:20:24;6.83;94.44
68251;DHT22;55066;51.560;4.642;2023-02-05T17:25:26;6.73;94.11
68251;DHT22;55066;51.560;4.642;2023-02-05T17:27:52;6.86;98.22
68251;DHT22;55066;51.560;4.642;2023-02-05T17:30:19;6.62;94.87
68251;DHT22;55066;51.560;4.642;2023-02-05T17:32:45;6.45;93.64
68251;DHT22;55066;51.560;4.642;2023-02-05T17:35:18;6.72;99.99
68251;DHT22;55066;51.560;4.642;2023-02-05T17:37:50;6.65;99.99
68251;DHT22;55066;51.560;4.642;2023-02-05T17:40:17;6.41;94.52
68251;DHT22;55066;51.560;4.642;2023-02-05T17:42:44;6.57;99.99
68251;DHT22;55066;51.560;4.642;2023-02-05T17:45:17;6.36;98.19
68251;DHT22;55066;51.560;4.642;2023-02-05T17:47:45;6.68;98.13
68251;DHT22;55066;51.560;4.642;2023-02-05T17:50:11;6.68;97.84
68251;DHT22;55066;51.560;4.642;2023-02-05T17:52:37;6.57;97.79
68251;DHT22;55066;51.560;4.642;2023-02-05T17:55:03;6.59;96.03
68251;DHT22;55066;51.560;4.642;2023-02-05T17:57:29;6.73;99.99
68251;DHT22;55066;51.560;4.642;2023-02-05T18:00:01;6.75;99.99
68251;DHT22;55066;51.560;4.642;2023-02-05T18:02:37;6.69;96.50
68251;DHT22;55066;51.560;4.642;2023-02-05T18:05:02;6.61;97.59
68251;DHT22;55066;51.560;4.642;2023-02-05T18:07:32;6.77;99.99
68251;DHT22;55066;51.560;4.642;2023-02-05T18:09:59;6.84;96.95
68251;DHT22;55066;51.560;4.642;2023-02-05T18:12:25;6.87;98.92
68251;DHT22;55066;51.560;4.642;2023-02-05T18:14:51;6.61;96.96
68251;DHT22;55066;51.560;4.642;2023-02-05T18:17:16;6.57;96.24
68251;DHT22;55066;51.560;4.642;2023-02-05T18:19:42;6.59;97.81
68251;DHT22;55066;51.560;4.642;2023-02-05T18:22:07;6.36;98.21
68251;DHT22;55066;51.560;4.642;2023-02-05T18:24:33;6.48;99.99
68251;DHT22;55066;51.560;4.642;2023-02-05T18:27:05;6.36;99.99
68251;DHT22;55066;51.560;4.642;2023-02-05T18:29:35;6.38;99.99